Time;durP1;ratioP1;P1;durP2;ratioP2;P2;SDS_P1;SDS_P2;PMS_P1;PMS_P2;Temp;Humidity;BMP_temperature;BMP_pressure;BME280_temperature;BME280_humidity;BME280_pressure;Samples;Min_cycle;Max_cycle;Signal;HPM_P1;HPM_P2
2021/04/20 00:01:39;;;;;;;25.00;17.00;;;;;;;5.92;71.40;100481.46;105481;1108;79521;-61
2021/04/20 00:03:44;;;;;;;22.10;15.50;;;;;;;5.92;71.34;100487.67;105511;1107;78166;-66
2021/04/20 00:05:49;;;;;;;24.40;14.90;;;;;;;5.91;71.83;100485.98;105510;1108;79037;-67
2021/04/20 00:07:54;;;;;;;25.30;16.40;;;;;;;5.92;71.85;100487.67;105480;1108;78638;-66
2021/04/20 00:09:59;;;;;;;25.30;15.50;;;;;;;5.90;71.78;100486.16;105472;1108;77472;-66
2021/04/20 00:12:06;;;;;;;26.10;15.50;;;;;;;5.87;72.01;100489.14;105460;1107;77760;-66
2021/04/20 00:14:13;;;;;;;25.40;14.60;;;;;;;5.90;71.88;100488.83;105479;1108;76895;-61
2021/04/20 00:16:18;;;;;;;28.20;16.60;;;;;;;5.89;71.86;100487.14;105442;1108;78553;-60
2021/04/20 00:18:23;;;;;;;23.90;15.70;;;;;;;5.87;71.81;100486.46;105491;1107;78482;-65
2021/04/20 00:20:29;;;;;;;20.80;14.80;;;;;;;5.87;71.75;100483.78;105498;1107;76752;-65
2021/04/20 00:22:34;;;;;;;26.90;15.70;;;;;;;5.84;71.68;100484.06;105440;1107;78635;-66
2021/04/20 00:24:39;;;;;;;23.40;15.90;;;;;;;5.83;71.70;100483.21;105507;1108;77827;-60
2021/04/20 00:26:44;;;;;;;23.80;15.60;;;;;;;5.80;71.74;100480.84;105473;1108;78279;-60
2021/04/20 00:28:49;;;;;;;28.50;15.40;;;;;;;5.79;71.63;100481.02;105476;1107;78038;-60
2021/04/20 00:30:54;;;;;;;23.00;13.90;;;;;;;5.73;71.79;100481.63;105490;1108;78483;-60
2021/04/20 00:33:03;;;;;;;25.90;15.00;;;;;;;5.66;71.69;100473.36;105481;1108;77116;-65
2021/04/20 00:35:11;;;;;;;24.90;14.70;;;;;;;5.61;71.94;100481.03;105443;1108;78294;-66
2021/04/20 00:37:16;;;;;;;25.40;15.30;;;;;;;5.57;71.96;100481.51;105462;1107;76993;-66
2021/04/20 00:39:24;;;;;;;26.10;16.00;;;;;;;5.57;72.05;100484.19;105406;1108;77849;-60
2021/04/20 00:41:29;;;;;;;20.60;13.70;;;;;;;5.53;71.95;100482.80;105445;1108;77280;-61
2021/04/20 00:43:37;;;;;;;21.10;14.30;;;;;;;5.54;71.88;100479.14;105488;1107;77657;-61
2021/04/20 00:45:43;;;;;;;23.60;14.50;;;;;;;5.51;71.96;100485.65;105467;1108;77760;-60
2021/04/20 00:47:48;;;;;;;24.90;14.60;;;;;;;5.47;72.11;100473.55;105497;1107;78507;-60
2021/04/20 00:49:53;;;;;;;22.80;14.20;;;;;;;5.44;72.03;100481.89;105499;1108;76710;-66
2021/04/20 00:51:59;;;;;;;26.60;14.60;;;;;;;5.43;72.09;100476.70;105491;1107;78048;-65
2021/04/20 00:54:05;;;;;;;27.50;14.50;;;;;;;5.38;72.16;100479.00;105505;1108;77525;-65
2021/04/20 00:56:11;;;;;;;24.20;14.00;;;;;;;5.34;72.18;100473.95;105514;1108;78864;-66
2021/04/20 00:58:16;;;;;;;24.30;14.40;;;;;;;5.31;72.29;100484.97;105508;1107;77196;-60
2021/04/20 01:00:27;;;;;;;20.40;13.90;;;;;;;5.30;72.32;100477.91;105439;1107;77144;-60
2021/04/20 01:02:35;;;;;;;27.90;14.00;;;;;;;5.28;72.46;100477.23;105461;1108;78138;-60
2021/04/20 01:04:40;;;;;;;21.70;14.90;;;;;;;5.24;72.33;100475.88;105501;1108;78813;-60
2021/04/20 01:06:46;;;;;;;20.60;13.40;;;;;;;5.25;72.34;100474.02;105477;1107;78392;-59
2021/04/20 01:08:51;;;;;;;19.10;14.10;;;;;;;5.23;72.58;100478.69;105498;1108;78811;-59
2021/04/20 01:10:59;;;;;;;23.30;14.50;;;;;;;5.23;72.73;100473.34;105458;1108;78175;-59
2021/04/20 01:13:05;;;;;;;22.50;14.20;;;;;;;5.19;72.68;100477.33;105492;1107;78403;-65
2021/04/20 01:15:16;;;;;;;22.30;14.50;;;;;;;5.17;72.80;100472.11;105453;1108;79085;-65
2021/04/20 01:17:27;;;;;;;21.50;13.40;;;;;;;5.17;72.76;100474.78;105476;1108;77357;-65
2021/04/20 01:19:36;;;;;;;23.40;14.70;;;;;;;5.19;72.83;100472.79;105504;1107;77586;-65
2021/04/20 01:21:47;;;;;;;22.90;14.30;;;;;;;5.18;72.87;100475.64;105472;1108;79445;-66
2021/04/20 01:24:02;;;;;;;21.40;13.70;;;;;;;5.17;72.89;100471.27;105469;1108;78537;-66
2021/04/20 01:26:08;;;;;;;20.80;13.90;;;;;;;5.15;72.84;100473.26;105487;1108;78727;-66
2021/04/20 01:28:14;;;;;;;18.70;13.00;;;;;;;5.12;72.92;100471.73;105532;1102;77070;-59
2021/04/20 01:30:23;;;;;;;21.60;14.70;;;;;;;5.07;72.85;100468.67;105492;1107;78790;-60
2021/04/20 01:32:30;;;;;;;21.00;12.30;;;;;;;5.07;72.95;100466.00;105483;1108;78840;-60
2021/04/20 01:34:36;;;;;;;19.20;12.90;;;;;;;5.03;72.86;100466.44;105523;1108;78234;-65
2021/04/20 01:36:43;;;;;;;24.20;13.60;;;;;;;5.00;72.82;100462.23;105442;1108;78254;-66
2021/04/20 01:38:50;;;;;;;18.70;12.30;;;;;;;4.98;72.87;100466.05;105480;1108;78045;-59
2021/04/20 01:40:56;;;;;;;22.20;13.00;;;;;;;4.97;72.97;100465.20;105483;1108;78317;-60
2021/04/20 01:43:02;;;;;;;21.00;13.60;;;;;;;4.93;73.04;100463.84;105493;1108;77839;-60
2021/04/20 01:45:10;;;;;;;21.70;12.90;;;;;;;4.93;72.81;100461.17;105426;1108;79536;-60
2021/04/20 01:47:16;;;;;;;18.20;12.50;;;;;;;4.91;73.15;100467.67;105516;1102;77711;-59
2021/04/20 01:49:22;;;;;;;19.30;12.30;;;;;;;4.88;73.14;100470.64;105490;1107;77695;-59
2021/04/20 01:51:27;;;;;;;17.90;12.10;;;;;;;4.86;73.16;100468.13;105454;1107;78746;-60
2021/04/20 01:53:33;;;;;;;16.90;12.00;;;;;;;4.82;73.28;100464.06;105468;1108;77315;-65
2021/04/20 01:55:39;;;;;;;15.90;12.10;;;;;;;4.76;73.21;100464.66;105427;1107;78725;-66
2021/04/20 01:57:48;;;;;;;20.70;12.60;;;;;;;4.71;73.21;100464.27;105458;1108;78228;-66
2021/04/20 01:59:53;;;;;;;17.80;12.50;;;;;;;4.69;73.32;100469.78;105520;1107;78696;-59
2021/04/20 02:02:00;;;;;;;18.70;12.80;;;;;;;4.69;73.33;100468.94;105468;1107;77673;-59
2021/04/20 02:04:05;;;;;;;20.00;12.50;;;;;;;4.64;73.39;100465.88;105470;1108;78462;-60
2021/04/20 02:06:11;;;;;;;20.10;12.30;;;;;;;4.62;73.55;100462.48;105416;1108;78598;-60
2021/04/20 02:08:19;;;;;;;16.70;11.80;;;;;;;4.58;73.47;100463.80;105428;1108;78386;-60
2021/04/20 02:10:26;;;;;;;16.80;12.30;;;;;;;4.48;73.46;100458.48;105416;1103;77416;-60
2021/04/20 02:12:31;;;;;;;18.90;11.90;;;;;;;4.49;73.57;100462.84;105475;1107;78037;-59
2021/04/20 02:14:37;;;;;;;18.60;11.70;;;;;;;4.46;73.68;100464.97;105402;1108;78800;-65
2021/04/20 02:16:44;;;;;;;18.40;12.00;;;;;;;4.43;73.66;100465.27;105402;1108;77177;-66
2021/04/20 02:18:57;;;;;;;18.10;12.50;;;;;;;4.41;73.77;100460.08;105461;1108;78115;-60
2021/04/20 02:21:03;;;;;;;17.90;12.00;;;;;;;4.38;73.74;100463.05;105401;1108;77150;-59
2021/04/20 02:23:08;;;;;;;16.60;12.50;;;;;;;4.36;73.70;100461.52;105415;1108;78329;-60
2021/04/20 02:25:19;;;;;;;18.60;12.90;;;;;;;4.34;73.89;100460.83;105456;1108;77386;-60
2021/04/20 02:27:28;;;;;;;21.10;12.90;;;;;;;4.32;73.83;100460.95;104867;1111;77719;-59
2021/04/20 02:29:33;;;;;;;18.80;12.00;;;;;;;4.32;73.87;100463.63;105478;1108;78015;-60
2021/04/20 02:31:40;;;;;;;18.80;12.30;;;;;;;4.33;73.73;100469.83;104837;1110;78332;-60
2021/04/20 02:33:46;;;;;;;18.70;13.00;;;;;;;4.32;73.96;100454.76;105424;1108;77916;-60
2021/04/20 02:35:51;;;;;;;19.30;13.20;;;;;;;4.30;73.92;100457.59;105433;1102;77210;-60
2021/04/20 02:37:56;;;;;;;21.30;13.30;;;;;;;4.25;74.11;100465.22;105450;1108;78541;-62
2021/04/20 02:40:02;;;;;;;18.30;12.80;;;;;;;4.22;73.94;100459.31;105421;1108;78227;-65
2021/04/20 02:42:09;;;;;;;19.30;13.40;;;;;;;4.18;74.18;100456.94;105476;1108;77174;-66
2021/04/20 02:44:14;;;;;;;19.40;13.20;;;;;;;4.15;74.15;100451.88;105468;1108;78025;-66
2021/04/20 02:46:20;;;;;;;23.70;14.20;;;;;;;4.14;74.08;100458.23;105426;1108;78450;-66
2021/04/20 02:48:26;;;;;;;21.20;13.90;;;;;;;4.12;74.27;100462.86;105467;1102;77358;-60
2021/04/20 02:50:31;;;;;;;22.90;14.90;;;;;;;4.10;74.19;100464.84;105447;1108;78525;-59
2021/04/20 02:52:38;;;;;;;26.00;13.90;;;;;;;4.08;74.31;100458.81;105406;1108;77064;-60
2021/04/20 02:54:44;;;;;;;20.90;14.00;;;;;;;4.06;74.26;100463.47;105466;1107;78680;-65
2021/04/20 02:56:52;;;;;;;21.10;14.50;;;;;;;4.04;74.28;100457.41;105435;1108;77770;-66
2021/04/20 02:59:04;;;;;;;23.50;15.10;;;;;;;4.02;74.34;100459.39;105408;1108;78199;-65
2021/04/20 03:01:17;;;;;;;29.30;16.10;;;;;;;4.01;74.14;100456.88;105429;1102;79817;-65
2021/04/20 03:03:23;;;;;;;22.60;15.30;;;;;;;3.97;74.28;100453.65;105463;1108;78644;-59
2021/04/20 03:05:31;;;;;;;28.20;18.40;;;;;;;3.94;74.40;100453.09;104833;1110;77736;-60
2021/04/20 03:07:37;;;;;;;25.40;16.10;;;;;;;3.92;74.50;100463.94;105434;1108;78780;-60
2021/04/20 03:09:42;;;;;;;27.90;16.40;;;;;;;3.92;74.48;100458.59;105460;1108;77626;-59
2021/04/20 03:11:58;;;;;;;26.30;17.20;;;;;;;3.89;74.61;100455.36;105431;1108;78000;-60
2021/04/20 03:14:06;;;;;;;25.50;17.40;;;;;;;3.85;74.46;100454.80;105443;1108;78862;-66
2021/04/20 03:16:13;;;;;;;24.50;17.30;;;;;;;3.79;74.58;100446.55;105412;1108;78197;-65
2021/04/20 03:18:18;;;;;;;23.90;15.80;;;;;;;3.75;74.59;100450.47;105463;1108;78604;-60
2021/04/20 03:20:23;;;;;;;28.50;16.60;;;;;;;3.72;74.62;100445.42;105454;1108;77450;-60
2021/04/20 03:22:29;;;;;;;26.20;17.50;;;;;;;3.70;74.47;100442.05;105466;1107;78149;-59
2021/04/20 03:25:14;;;;;;;26.70;16.60;;;;;;;3.67;74.65;100450.36;105457;1108;77468;-66
2021/04/20 03:27:22;;;;;;;26.80;19.10;;;;;;;3.63;74.93;100446.27;105462;1108;78502;-66
2021/04/20 03:29:28;;;;;;;30.40;19.60;;;;;;;3.61;74.85;100442.91;105448;1108;77177;-66
2021/04/20 03:31:36;;;;;;;30.20;20.20;;;;;;;3.59;75.00;100445.73;105418;1103;77218;-66
2021/04/20 03:33:42;;;;;;;30.20;18.40;;;;;;;3.59;74.94;100445.73;105483;1102;77564;-66
2021/04/20 03:35:59;;;;;;;29.40;19.90;;;;;;;3.58;74.91;100446.71;105408;1107;78775;-66
2021/04/20 03:38:12;;;;;;;28.30;18.30;;;;;;;3.55;74.99;100447.00;105453;1108;79040;-65
2021/04/20 03:40:19;;;;;;;31.80;19.70;;;;;;;3.55;75.22;100447.00;105410;1108;77647;-64
2021/04/20 03:42:27;;;;;;;34.90;20.00;;;;;;;3.54;75.13;100453.34;105476;1107;79714;-66
2021/04/20 03:44:39;;;;;;;30.00;19.60;;;;;;;3.54;75.02;100453.34;105442;1108;77173;-59
2021/04/20 03:46:47;;;;;;;32.30;20.80;;;;;;;3.56;75.32;100451.36;105436;1108;77471;-60
2021/04/20 03:48:58;;;;;;;31.70;19.90;;;;;;;3.59;75.25;100456.42;105396;1108;78844;-60
2021/04/20 03:51:09;;;;;;;26.90;18.60;;;;;;;3.62;75.29;100450.80;105445;1108;78104;-59
2021/04/20 03:53:18;;;;;;;34.00;20.70;;;;;;;3.64;75.44;100443.47;105472;1102;78606;-66
2021/04/20 03:55:27;;;;;;;32.70;20.10;;;;;;;3.61;75.26;100441.09;105402;1108;77550;-65
2021/04/20 03:57:36;;;;;;;32.40;20.80;;;;;;;3.64;75.49;100448.81;105423;1108;77064;-65
2021/04/20 03:59:45;;;;;;;28.30;20.20;;;;;;;3.66;75.52;100445.98;105456;1108;78292;-60
2021/04/20 04:01:51;;;;;;;27.40;19.80;;;;;;;3.70;75.46;100447.39;105389;1107;77650;-59
2021/04/20 04:03:58;;;;;;;31.50;19.30;;;;;;;3.75;75.44;100448.65;105440;1108;78667;-59
2021/04/20 04:06:05;;;;;;;32.40;20.00;;;;;;;3.78;75.62;100445.69;105430;1107;78578;-60
2021/04/20 04:08:11;;;;;;;30.60;20.10;;;;;;;3.86;75.64;100445.81;105431;1108;77478;-59
2021/04/20 04:10:19;;;;;;;32.50;20.60;;;;;;;3.94;75.62;100440.58;105451;1108;78990;-60
2021/04/20 04:12:27;;;;;;;29.10;20.40;;;;;;;4.03;75.87;100452.22;105431;1107;78498;-60
2021/04/20 04:14:37;;;;;;;29.90;20.20;;;;;;;4.37;76.07;100444.48;105421;1108;76944;-60
2021/04/20 04:16:46;;;;;;;31.70;20.60;;;;;;;4.83;75.64;100446.17;105448;1108;77454;-60
2021/04/20 04:18:55;;;;;;;36.10;20.00;;;;;;;5.20;75.63;100441.50;105405;1108;78680;-60
2021/04/20 04:21:04;;;;;;;36.60;20.30;;;;;;;5.87;75.88;100440.89;105409;1108;77788;-60
2021/04/20 04:23:15;;;;;;;36.80;20.30;;;;;;;6.68;75.21;100433.19;105433;1108;78185;-60
2021/04/20 04:25:26;;;;;;;32.40;20.40;;;;;;;7.30;74.73;100438.02;105428;1108;78455;-59
2021/04/20 04:27:35;;;;;;;36.70;20.70;;;;;;;8.20;74.46;100431.49;105430;1108;77977;-60
2021/04/20 04:29:42;;;;;;;33.60;19.20;;;;;;;9.30;73.60;100423.17;105440;1108;77702;-67
2021/04/20 04:31:48;;;;;;;35.20;20.30;;;;;;;10.22;72.31;100420.09;105435;1107;78125;-66
2021/04/20 04:33:57;;;;;;;34.20;22.20;;;;;;;11.03;71.16;100422.58;105430;1108;78396;-60
2021/04/20 04:36:03;;;;;;;34.80;19.70;;;;;;;11.79;69.92;100421.84;105419;1108;77329;-60
2021/04/20 04:38:09;;;;;;;30.40;20.70;;;;;;;12.38;68.93;100419.54;105477;1107;79290;-60
2021/04/20 04:40:20;;;;;;;29.70;20.00;;;;;;;12.94;67.61;100431.02;105388;1108;77964;-60
2021/04/20 04:42:26;;;;;;;34.00;20.80;;;;;;;13.48;66.49;100422.83;105428;1108;78740;-60
2021/04/20 04:44:31;;;;;;;36.00;20.90;;;;;;;14.02;65.13;100424.47;105409;1108;78298;-60
2021/04/20 04:46:36;;;;;;;38.30;20.00;;;;;;;14.56;63.98;100425.00;105415;1108;78586;-60
2021/04/20 04:48:42;;;;;;;34.20;19.80;;;;;;;14.95;62.95;100421.28;105420;1108;77474;-60
2021/04/20 04:50:48;;;;;;;37.00;20.10;;;;;;;15.29;61.82;100418.16;105497;1102;76568;-60
2021/04/20 04:52:56;;;;;;;26.70;18.30;;;;;;;15.57;60.75;100420.51;105427;1108;77746;-61
2021/04/20 04:55:02;;;;;;;26.20;16.40;;;;;;;15.91;59.85;100411.82;105413;1108;77863;-67
2021/04/20 04:57:14;;;;;;;23.20;17.40;;;;;;;16.29;59.04;100419.83;105421;1108;77390;-67
2021/04/20 04:59:20;;;;;;;21.70;15.90;;;;;;;16.65;58.02;100410.84;104794;1110;77944;-61
2021/04/20 05:01:26;;;;;;;23.70;16.00;;;;;;;17.14;56.91;100417.16;105415;1107;79157;-60
2021/04/20 05:03:31;;;;;;;26.60;15.30;;;;;;;17.65;55.61;100417.44;105447;1108;80122;-61
2021/04/20 05:05:39;;;;;;;21.00;13.00;;;;;;;18.38;54.63;100414.23;105387;1108;78389;-60
2021/04/20 05:07:44;;;;;;;16.30;12.80;;;;;;;18.77;53.09;100406.11;105409;1108;78875;-60
2021/04/20 05:09:50;;;;;;;21.70;13.10;;;;;;;19.45;52.20;100412.66;105430;1103;77299;-68
2021/04/20 05:11:55;;;;;;;20.90;13.10;;;;;;;19.51;50.82;100404.25;104773;1110;77371;-68
2021/04/20 05:14:03;;;;;;;16.20;10.70;;;;;;;19.97;50.29;100408.58;105445;1102;78254;-59
2021/04/20 05:16:11;;;;;;;17.40;12.70;;;;;;;20.31;49.66;100412.98;105408;1107;78614;-60
2021/04/20 05:18:18;;;;;;;20.60;13.00;;;;;;;20.70;49.33;100410.20;105402;1108;78033;-67
2021/04/20 05:20:24;;;;;;;21.10;14.30;;;;;;;20.93;48.58;100409.96;105415;1108;78794;-68
2021/04/20 05:22:29;;;;;;;19.70;11.90;;;;;;;20.94;47.68;100408.86;105428;1108;78954;-68
2021/04/20 05:24:37;;;;;;;15.20;11.20;;;;;;;21.28;46.42;100410.38;105423;1108;79017;-68
2021/04/20 05:26:43;;;;;;;18.90;10.60;;;;;;;21.55;46.41;100410.36;105422;1108;77261;-68
2021/04/20 05:28:48;;;;;;;15.50;9.60;;;;;;;21.86;44.65;100411.45;105430;1107;78358;-69
2021/04/20 05:30:56;;;;;;;12.90;9.30;;;;;;;22.55;43.79;100406.73;105427;1108;78342;-68
2021/04/20 05:33:03;;;;;;;11.50;8.30;;;;;;;23.44;42.63;100405.42;105418;1108;77970;-62
2021/04/20 05:35:11;;;;;;;13.00;8.20;;;;;;;23.95;42.13;100409.02;105453;1108;76817;-61
2021/04/20 05:37:28;;;;;;;11.60;7.10;;;;;;;24.23;39.19;100406.83;105506;1101;78827;-61
2021/04/20 05:39:33;;;;;;;10.00;6.30;;;;;;;24.20;39.65;100404.63;105462;1107;78734;-68
2021/04/20 05:41:43;;;;;;;8.10;5.80;;;;;;;24.64;39.21;100409.19;105435;1108;78308;-68
2021/04/20 05:43:52;;;;;;;9.50;6.60;;;;;;;24.73;37.69;100403.91;105405;1108;78605;-61
2021/04/20 05:45:58;;;;;;;9.50;5.60;;;;;;;24.86;36.55;100400.56;105381;1108;77678;-61
2021/04/20 05:48:04;;;;;;;8.80;6.10;;;;;;;25.20;34.73;100406.20;105464;1108;77077;-60
2021/04/20 05:50:13;;;;;;;9.60;5.60;;;;;;;25.45;34.86;100402.45;105486;1102;78780;-62
2021/04/20 05:52:18;;;;;;;8.70;5.20;;;;;;;26.18;34.91;100417.94;105422;1107;76741;-60
2021/04/20 05:54:24;;;;;;;8.60;5.30;;;;;;;26.72;34.09;100405.73;105427;1108;78663;-61
2021/04/20 05:56:29;;;;;;;5.80;4.40;;;;;;;27.31;32.60;100403.28;105445;1107;77427;-61
2021/04/20 05:58:34;;;;;;;6.70;4.90;;;;;;;27.13;32.38;100401.34;105445;1108;77605;-61
2021/04/20 06:00:40;;;;;;;5.00;4.50;;;;;;;27.22;32.36;100407.85;105444;1108;76895;-61
2021/04/20 06:02:49;;;;;;;6.80;4.70;;;;;;;26.85;31.31;100407.81;105424;1108;78515;-61
2021/04/20 06:04:57;;;;;;;7.60;4.90;;;;;;;27.08;31.45;100398.64;105489;1108;77615;-61
2021/04/20 06:07:02;;;;;;;5.30;4.60;;;;;;;27.02;31.89;100401.77;105403;1108;78409;-62
2021/04/20 06:09:09;;;;;;;6.30;4.10;;;;;;;26.68;29.69;100407.42;105459;1107;78632;-71
2021/04/20 06:11:15;;;;;;;6.80;4.50;;;;;;;26.86;31.02;100406.70;105428;1108;78905;-69
2021/04/20 06:13:21;;;;;;;4.60;3.90;;;;;;;26.40;29.42;100400.02;105450;1108;78008;-61
2021/04/20 06:15:27;;;;;;;7.40;4.30;;;;;;;25.62;29.99;100391.84;105448;1108;78815;-62
2021/04/20 06:17:32;;;;;;;5.20;3.90;;;;;;;25.73;30.11;100401.72;105440;1108;76812;-62
2021/04/20 06:19:38;;;;;;;5.50;4.40;;;;;;;26.02;30.20;100394.25;105444;1108;77863;-68
2021/04/20 06:21:46;;;;;;;5.70;4.10;;;;;;;26.41;30.16;100393.34;104745;1110;78496;-68
2021/04/20 06:23:51;;;;;;;5.00;4.30;;;;;;;27.31;29.66;100386.64;105470;1108;78251;-67
2021/04/20 06:26:01;;;;;;;7.80;4.00;;;;;;;27.39;28.98;100385.97;105425;1108;76946;-68
2021/04/20 06:28:11;;;;;;;5.10;3.50;;;;;;;27.40;27.56;100384.02;105446;1108;77351;-60
2021/04/20 06:30:20;;;;;;;3.80;3.20;;;;;;;26.12;28.54;100385.03;104816;1111;77755;-60
2021/04/20 06:32:28;;;;;;;4.00;3.50;;;;;;;25.75;29.03;100388.41;104815;1109;79881;-60
2021/04/20 06:34:34;;;;;;;4.50;3.50;;;;;;;25.59;29.57;100384.12;105485;1108;79290;-60
2021/04/20 06:36:40;;;;;;;5.50;3.50;;;;;;;25.12;29.10;100385.52;105423;1108;76708;-60
2021/04/20 06:38:46;;;;;;;7.10;3.40;;;;;;;25.34;29.06;100384.27;104759;1110;78213;-68
2021/04/20 06:40:57;;;;;;;4.70;3.20;;;;;;;25.28;29.63;100388.17;105419;1108;79261;-67
2021/04/20 06:43:04;;;;;;;5.70;2.90;;;;;;;25.15;29.56;100382.18;105432;1108;78743;-62
2021/04/20 06:45:21;;;;;;;4.20;2.80;;;;;;;25.96;28.38;100384.34;105471;1108;79557;-70
2021/04/20 06:47:39;;;;;;;3.90;3.00;;;;;;;27.00;28.10;100377.13;105390;1108;78107;-70
2021/04/20 06:49:43;;;;;;;3.40;2.90;;;;;;;26.67;27.74;100378.08;105432;1108;77673;-61
2021/04/20 06:51:54;;;;;;;5.70;4.10;;;;;;;26.87;26.29;100378.66;104775;1110;78698;-68
2021/04/20 06:54:05;;;;;;;5.00;3.80;;;;;;;27.82;27.61;100377.55;104838;1101;78426;-68
2021/04/20 06:56:26;;;;;;;5.90;3.80;;;;;;;27.79;26.00;100380.92;105430;1108;79013;-69
2021/04/20 07:00:59;;;;;;;;;;;;;;;28.12;26.25;100382.59;105474;1091;77308;-61
2021/04/20 07:03:18;;;;;;;4.40;3.40;;;;;;;27.05;24.24;100368.73;105459;1107;77945;-61
2021/04/20 07:05:35;;;;;;;4.70;3.20;;;;;;;26.13;26.49;100389.44;105453;1107;77904;-69
2021/04/20 07:08:02;;;;;;;4.50;3.10;;;;;;;25.90;26.69;100384.69;105467;1108;79064;-67
2021/04/20 07:10:15;;;;;;;5.40;3.60;;;;;;;25.69;26.53;100378.48;105461;1108;77322;-70
2021/04/20 07:12:22;;;;;;;7.30;2.90;;;;;;;26.20;26.69;100374.19;105409;1108;78446;-71
2021/04/20 07:14:40;;;;;;;4.00;2.90;;;;;;;26.73;27.17;100374.09;105440;1108;77928;-69
2021/04/20 07:17:06;;;;;;;4.50;3.30;;;;;;;27.25;26.25;100370.39;105408;1108;78884;-68
2021/04/20 07:19:36;;;;;;;5.10;3.60;;;;;;;27.99;25.94;100373.05;105392;1107;78264;-69
2021/04/20 07:22:12;;;;;;;6.80;3.20;;;;;;;28.65;24.81;100366.30;105451;1108;78434;-70
2021/04/20 07:24:19;;;;;;;5.90;3.50;;;;;;;28.28;25.52;100364.50;105386;1108;78065;-69
2021/04/20 07:26:49;;;;;;;5.20;3.30;;;;;;;28.38;25.09;100360.69;105462;1108;77838;-61
2021/04/20 07:29:17;;;;;;;4.60;2.80;;;;;;;28.74;24.09;100367.20;105478;1102;78202;-61
2021/04/20 07:31:35;;;;;;;4.70;2.80;;;;;;;28.90;25.20;100365.74;105425;1108;79175;-61
2021/04/20 07:34:04;;;;;;;4.80;3.30;;;;;;;29.64;24.40;100361.52;105414;1108;78124;-61
2021/04/20 07:36:19;;;;;;;4.20;3.60;;;;;;;29.92;23.43;100361.41;105433;1108;79561;-60
2021/04/20 07:38:33;;;;;;;4.90;3.00;;;;;;;29.62;23.57;100371.33;105501;1101;78305;-63
2021/04/20 07:40:46;;;;;;;3.30;3.00;;;;;;;28.50;23.33;100366.57;105429;1108;78053;-61
2021/04/20 07:43:11;;;;;;;4.30;2.80;;;;;;;28.96;24.25;100358.11;105445;1108;79478;-62
2021/04/20 07:45:24;;;;;;;3.60;2.70;;;;;;;29.79;24.16;100360.32;105451;1107;78426;-69
2021/04/20 07:47:28;;;;;;;;;;;;;;;29.52;23.16;100364.06;105466;1107;78326;-61
2021/04/20 07:49:48;;;;;;;5.20;3.10;;;;;;;29.20;23.17;100355.88;105448;1108;78179;-63
2021/04/20 07:52:01;;;;;;;4.30;3.10;;;;;;;28.67;23.65;100355.69;105475;1108;78367;-61
2021/04/20 07:54:10;;;;;;;;;;;;;;;27.76;23.86;100360.15;105406;1108;79182;-60
2021/04/20 07:56:24;;;;;;;5.10;3.50;;;;;;;27.16;24.29;100359.14;105470;1101;77465;-61
2021/04/20 07:58:40;;;;;;;4.40;3.30;;;;;;;26.37;24.97;100362.62;105459;1108;77175;-60
2021/04/20 08:00:56;;;;;;;3.50;3.20;;;;;;;27.30;24.85;100357.27;105473;1108;76960;-61
2021/04/20 08:03:16;;;;;;;4.40;3.40;;;;;;;27.16;24.45;100352.77;105421;1108;78564;-61
2021/04/20 08:05:28;;;;;;;4.40;3.50;;;;;;;26.39;24.49;100360.40;105483;1101;77469;-59
2021/04/20 08:07:42;;;;;;;3.90;3.00;;;;;;;25.60;25.23;100352.58;105459;1108;78255;-68
2021/04/20 08:09:55;;;;;;;3.90;3.20;;;;;;;25.46;25.10;100352.38;105420;1108;78302;-67
2021/04/20 08:12:06;;;;;;;;;;;;;;;25.39;26.22;100353.80;105482;1108;78224;-69
2021/04/20 08:14:21;;;;;;;4.60;3.20;;;;;;;25.57;25.77;100344.86;105446;1108;77852;-68
2021/04/20 08:16:34;;;;;;;4.60;3.40;;;;;;;25.41;26.27;100346.06;105474;1108;77744;-60
2021/04/20 08:18:55;;;;;;;4.60;3.50;;;;;;;25.39;26.15;100353.80;105454;1108;78675;-60
2021/04/20 08:21:02;;;;;;;5.40;3.30;;;;;;;25.30;26.36;100359.11;105442;1108;78856;-61
2021/04/20 08:23:10;;;;;;;5.30;3.50;;;;;;;25.36;26.32;100349.67;105463;1107;78685;-60
2021/04/20 08:25:28;;;;;;;4.20;3.40;;;;;;;25.23;26.57;100353.09;105428;1108;77621;-60
2021/04/20 08:27:45;;;;;;;4.60;3.80;;;;;;;25.08;26.56;100345.70;105433;1108;78856;-68
2021/04/20 08:29:59;;;;;;;5.20;3.90;;;;;;;25.27;27.16;100340.36;105462;1108;78624;-69
2021/04/20 08:32:12;;;;;;;18.70;16.50;;;;;;;25.37;26.21;100343.03;105471;1108;78289;-70
2021/04/20 08:34:21;;;;;;;;;;;;;;;25.16;26.41;100336.81;105451;1108;78451;-70
2021/04/20 08:36:39;;;;;;;10.50;9.00;;;;;;;25.29;26.90;100334.52;105413;1108;78917;-68
2021/04/20 08:38:59;;;;;;;7.10;3.90;;;;;;;25.67;26.85;100336.45;105453;1108;77516;-69
2021/04/20 08:41:11;;;;;;;4.50;3.60;;;;;;;25.71;25.26;100332.00;105488;1108;77311;-68
2021/04/20 08:43:33;;;;;;;4.80;3.40;;;;;;;25.33;26.21;100335.58;105454;1108;79100;-67
2021/04/20 08:45:49;;;;;;;4.70;3.40;;;;;;;25.68;25.74;100338.12;105502;1108;78438;-68
2021/04/20 08:48:08;;;;;;;4.40;3.20;;;;;;;26.01;25.70;100325.34;104798;1111;79497;-68
2021/04/20 08:50:18;;;;;;;5.20;3.40;;;;;;;26.00;25.50;100324.52;104807;1110;77918;-68
2021/04/20 08:52:49;;;;;;;4.30;3.50;;;;;;;25.77;25.11;100326.11;104775;1110;76897;-61
2021/04/20 08:55:14;;;;;;;4.00;3.40;;;;;;;25.93;25.57;100318.48;104796;1111;79131;-62
2021/04/20 08:57:40;;;;;;;6.10;3.20;;;;;;;26.06;24.74;100326.11;104810;1110;77294;-70
2021/04/20 09:00:04;;;;;;;7.60;3.30;;;;;;;26.50;25.33;100327.85;104756;1111;78003;-69
2021/04/20 09:02:29;;;;;;;6.00;3.20;;;;;;;26.55;24.88;100325.02;104768;1110;77061;-61
2021/04/20 09:04:58;;;;;;;4.20;3.60;;;;;;;26.89;25.34;100328.48;104774;1110;78467;-62
2021/04/20 09:07:14;;;;;;;6.20;3.50;;;;;;;26.89;23.96;100331.25;104749;1110;77525;-68
2021/04/20 09:09:28;;;;;;;4.50;3.60;;;;;;;26.63;23.60;100327.13;104800;1110;77933;-68
2021/04/20 09:11:38;;;;;;;4.60;3.30;;;;;;;26.21;23.83;100325.96;104769;1110;77633;-66
2021/04/20 09:13:56;;;;;;;5.60;3.30;;;;;;;25.78;24.41;100316.70;104725;1111;77677;-66
2021/04/20 09:16:07;;;;;;;5.70;3.60;;;;;;;26.06;25.56;100317.80;104738;1110;77837;-61
2021/04/20 09:18:19;;;;;;;7.00;3.50;;;;;;;26.20;24.07;100310.48;104755;1110;78211;-62
2021/04/20 09:20:38;;;;;;;13.50;5.10;;;;;;;25.51;24.14;100310.04;104759;1110;79305;-65
2021/04/20 09:22:57;;;;;;;4.50;3.70;;;;;;;25.31;24.49;100315.70;104738;1110;78135;-62
2021/04/20 09:25:13;;;;;;;4.40;3.60;;;;;;;25.27;25.26;100311.87;104731;1110;78673;-64
2021/04/20 09:27:43;;;;;;;4.20;3.40;;;;;;;25.31;26.02;100310.16;104773;1110;77530;-64
2021/04/20 09:30:03;;;;;;;4.30;3.20;;;;;;;24.98;26.04;100307.08;104734;1111;78820;-63
2021/04/20 09:32:14;;;;;;;6.80;3.60;;;;;;;24.48;26.26;100297.10;104781;1110;78008;-62
2021/04/20 09:34:20;;;;;;;4.10;3.50;;;;;;;24.29;26.09;100303.53;104733;1110;78965;-64
2021/04/20 09:36:27;;;;;;;5.00;3.80;;;;;;;24.04;26.12;100310.75;104734;1110;77285;-61
2021/04/20 09:38:33;;;;;;;4.70;3.90;;;;;;;23.56;26.15;100296.77;104764;1110;77718;-64
2021/04/20 09:40:40;;;;;;;4.60;3.60;;;;;;;23.46;27.21;100303.10;104789;1110;78720;-65
2021/04/20 09:42:52;;;;;;;4.90;4.10;;;;;;;23.37;27.25;100313.02;104813;1110;77943;-65
2021/04/20 09:45:13;;;;;;;6.80;4.20;;;;;;;23.11;27.27;100301.14;104812;1111;78326;-66
2021/04/20 09:47:36;;;;;;;5.00;3.80;;;;;;;22.65;27.67;100297.47;104769;1110;77919;-67
2021/04/20 09:49:57;;;;;;;8.50;4.60;;;;;;;22.14;27.72;100299.14;104918;1103;79037;-65
2021/04/20 09:52:15;;;;;;;6.10;4.40;;;;;;;21.65;28.48;100300.45;104808;1110;76835;-63
2021/04/20 09:54:28;;;;;;;5.50;3.70;;;;;;;21.67;29.13;100304.59;104738;1110;78306;-63
2021/04/20 09:56:39;;;;;;;6.50;4.20;;;;;;;21.75;28.34;100295.05;104799;1110;77050;-65